Observation data for Lamesa on 01/13/2021      Previous  Date  Next       Current Mesonet Observations  Soil Data  Daily Summary Page  Observations in Plain Language
KLES 130600Z 23008KT M02/M03 A3022 RMK A01 T10191030  RH  093%=      5-min Rain = 0
KLES 130605Z 23008KT M02/M03 A3022 RMK A01 T10191030  RH  093%=      5-min Rain = 0
KLES 130610Z 23007KT M02/M03 A3022 RMK A01 T10191030  RH  092%=      5-min Rain = 0
KLES 130615Z 23008KT M02/M03 A3022 RMK A01 T10191031  RH  092%=      5-min Rain = 0
KLES 130620Z 23008KT M02/M03 A3022 RMK A01 T10201033  RH  092%=      5-min Rain = 0
KLES 130625Z 24008KT M02/M03 A3022 RMK A01 T10201032  RH  092%=      5-min Rain = 0
KLES 130630Z 24008KT M02/M03 A3022 RMK A01 T10191031  RH  092%=      5-min Rain = 0
KLES 130635Z 26008KT M02/M04 A3022 RMK A01 T10211035  RH  091%=      5-min Rain = 0
KLES 130640Z 26008KT M03/M04 A3022 RMK A01 T10261039  RH  091%=      5-min Rain = 0
KLES 130645Z 26007KT M03/M04 A3022 RMK A01 T10271038  RH  092%=      5-min Rain = 0
KLES 130650Z 26006KT M03/M04 A3021 RMK A01 T10261038  RH  092%=      5-min Rain = 0
KLES 130655Z 26006KT M03/M04 A3021 RMK A01 T10271039  RH  092%=      5-min Rain = 0
KLES 130700Z 26007KT M03/M04 A3021 RMK A01 T10281040  RH  092%=      5-min Rain = 0
KLES 130705Z 26007KT M03/M04 A3021 RMK A01 T10291041  RH  092%=      5-min Rain = 0
KLES 130710Z 25007KT M03/M04 A3021 RMK A01 T10291042  RH  092%=      5-min Rain = 0
KLES 130715Z 26006KT M03/M04 A3021 RMK A01 T10301043  RH  091%=      5-min Rain = 0
KLES 130720Z 26007KT M03/M04 A3021 RMK A01 T10311044  RH  091%=      5-min Rain = 0
KLES 130725Z 27008KT M03/M04 A3021 RMK A01 T10301043  RH  091%=      5-min Rain = 0
KLES 130730Z 27008KT M03/M04 A3021 RMK A01 T10291042  RH  091%=      5-min Rain = 0
KLES 130735Z 27008KT M03/M04 A3021 RMK A01 T10251041  RH  090%=      5-min Rain = 0
KLES 130740Z 27008KT M02/M04 A3021 RMK A01 T10241041  RH  089%=      5-min Rain = 0
KLES 130745Z 27009KT M02/M04 A3021 RMK A01 T10231041  RH  088%=      5-min Rain = 0
KLES 130750Z 28010KT M02/M04 A3022 RMK A01 T10231042  RH  087%=      5-min Rain = 0
KLES 130755Z 28009KT M02/M04 A3022 RMK A01 T10241044  RH  086%=      5-min Rain = 0
KLES 130800Z 28009KT M03/M05 A3022 RMK A01 T10261046  RH  086%=      5-min Rain = 0
KLES 130805Z 28009KT M03/M05 A3021 RMK A01 T10261046  RH  087%=      5-min Rain = 0
KLES 130810Z 28009KT M03/M05 A3022 RMK A01 T10261046  RH  086%=      5-min Rain = 0
KLES 130815Z 27009KT M03/M05 A3022 RMK A01 T10271047  RH  086%=      5-min Rain = 0
KLES 130820Z 27010KT M03/M05 A3022 RMK A01 T10261047  RH  086%=      5-min Rain = 0
KLES 130825Z 28009KT M03/M05 A3022 RMK A01 T10251048  RH  085%=      5-min Rain = 0
KLES 130830Z 28009KT M03/M05 A3022 RMK A01 T10261048  RH  085%=      5-min Rain = 0
KLES 130835Z 28009KT M03/M05 A3022 RMK A01 T10251048  RH  085%=      5-min Rain = 0
KLES 130840Z 28009KT M03/M05 A3022 RMK A01 T10271050  RH  084%=      5-min Rain = 0
KLES 130845Z 28009KT M03/M05 A3022 RMK A01 T10281051  RH  085%=      5-min Rain = 0
KLES 130850Z 28008KT M03/M05 A3022 RMK A01 T10281050  RH  085%=      5-min Rain = 0
KLES 130855Z 27008KT M03/M05 A3021 RMK A01 T10281050  RH  085%=      5-min Rain = 0
KLES 130900Z 27008KT M03/M05 A3021 RMK A01 T10271049  RH  085%=      5-min Rain = 0
KLES 130905Z 27008KT M03/M05 A3021 RMK A01 T10261048  RH  085%=      5-min Rain = 0
KLES 130910Z 27007KT M03/M05 A3021 RMK A01 T10261049  RH  085%=      5-min Rain = 0
KLES 130915Z 26007KT M03/M05 A3021 RMK A01 T10271050  RH  085%=      5-min Rain = 0
KLES 130920Z 26007KT M03/M05 A3021 RMK A01 T10291051  RH  085%=      5-min Rain = 0
KLES 130925Z 27006KT M03/M05 A3021 RMK A01 T10311052  RH  086%=      5-min Rain = 0
KLES 130930Z 27006KT M03/M05 A3021 RMK A01 T10321052  RH  086%=      5-min Rain = 0
KLES 130935Z 26006KT M03/M05 A302 RMK A01 T10321051  RH  087%=      5-min Rain = 0
KLES 130940Z 26006KT M03/M05 A302 RMK A01 T10321051  RH  087%=      5-min Rain = 0
KLES 130945Z 27006KT M03/M05 A302 RMK A01 T10341052  RH  087%=      5-min Rain = 0
KLES 130950Z 27007KT M03/M05 A3019 RMK A01 T10341051  RH  088%=      5-min Rain = 0
KLES 130955Z 27007KT M03/M05 A3019 RMK A01 T10321049  RH  088%=      5-min Rain = 0
KLES 131000Z 27008KT M03/M05 A3018 RMK A01 T10301048  RH  088%=      5-min Rain = 0
KLES 131005Z 27007KT M03/M05 A3018 RMK A01 T10291047  RH  087%=      5-min Rain = 0
KLES 131010Z 27007KT M03/M05 A3018 RMK A01 T10281047  RH  087%=      5-min Rain = 0
KLES 131015Z 27007KT M03/M05 A3018 RMK A01 T10281048  RH  087%=      5-min Rain = 0
KLES 131020Z 27006KT M03/M05 A3018 RMK A01 T10291049  RH  086%=      5-min Rain = 0
KLES 131025Z 27008KT M03/M05 A3018 RMK A01 T10291049  RH  086%=      5-min Rain = 0
KLES 131030Z 27008KT M03/M05 A3018 RMK A01 T10291049  RH  086%=      5-min Rain = 0
KLES 131035Z 27007KT M03/M05 A3017 RMK A01 T10301050  RH  086%=      5-min Rain = 0
KLES 131040Z 27008KT M03/M05 A3017 RMK A01 T10301050  RH  087%=      5-min Rain = 0
KLES 131045Z 27007KT M03/M05 A3017 RMK A01 T10311051  RH  086%=      5-min Rain = 0
KLES 131050Z 26006KT M03/M05 A3017 RMK A01 T10321052  RH  087%=      5-min Rain = 0
KLES 131055Z 26005KT M03/M05 A3017 RMK A01 T10331052  RH  087%=      5-min Rain = 0
KLES 131100Z 26004KT M03/M05 A3016 RMK A01 T10341052  RH  087%=      5-min Rain = 0
KLES 131105Z 25003KT M04/M05 A3016 RMK A01 T10351054  RH  087%=      5-min Rain = 0
KLES 131110Z 25004KT M04/M05 A3016 RMK A01 T10361054  RH  088%=      5-min Rain = 0
KLES 131115Z 23004KT M04/M06 A3016 RMK A01 T10371055  RH  088%=      5-min Rain = 0
KLES 131120Z 24005KT M04/M06 A3015 RMK A01 T10391056  RH  088%=      5-min Rain = 0
KLES 131125Z 23005KT M04/M06 A3015 RMK A01 T10401056  RH  088%=      5-min Rain = 0
KLES 131130Z 23004KT M04/M06 A3015 RMK A01 T10421058  RH  088%=      5-min Rain = 0
KLES 131135Z 24004KT M04/M06 A3015 RMK A01 T10441061  RH  089%=      5-min Rain = 0
KLES 131140Z 25006KT M04/M06 A3015 RMK A01 T10431057  RH  090%=      5-min Rain = 0
KLES 131145Z 25007KT M04/M06 A3015 RMK A01 T10411056  RH  089%=      5-min Rain = 0
KLES 131150Z 25008KT M04/M06 A3015 RMK A01 T10421057  RH  089%=      5-min Rain = 0
KLES 131155Z 25008KT M04/M06 A3015 RMK A01 T10421058  RH  089%=      5-min Rain = 0
KLES 131200Z 25007KT M04/M06 A3015 RMK A01 T10431057  RH  090%=      5-min Rain = 0
KLES 131205Z 25009KT M04/M06 A3015 RMK A01 T10421057  RH  090%=      5-min Rain = 0
KLES 131210Z 25009KT M04/M06 A3015 RMK A01 T10411056  RH  089%=      5-min Rain = 0
KLES 131215Z 25009KT M04/M06 A3015 RMK A01 T10421058  RH  089%=      5-min Rain = 0
KLES 131220Z 25010KT M04/M06 A3015 RMK A01 T10421056  RH  090%=      5-min Rain = 0
KLES 131225Z 26009KT M04/M06 A3015 RMK A01 T10401056  RH  089%=      5-min Rain = 0
KLES 131230Z 26009KT M04/M06 A3015 RMK A01 T10421057  RH  089%=      5-min Rain = 0
KLES 131235Z 26009KT M04/M06 A3015 RMK A01 T10411057  RH  089%=      5-min Rain = 0
KLES 131240Z 26009KT M04/M06 A3015 RMK A01 T10401056  RH  089%=      5-min Rain = 0
KLES 131245Z 27009KT M04/M05 A3015 RMK A01 T10391054  RH  089%=      5-min Rain = 0
KLES 131250Z 27009KT M04/M05 A3015 RMK A01 T10371053  RH  089%=      5-min Rain = 0
KLES 131255Z 27010KT M04/M05 A3015 RMK A01 T10351052  RH  088%=      5-min Rain = 0
KLES 131300Z 27010KT M04/M05 A3015 RMK A01 T10351053  RH  087%=      5-min Rain = 0
KLES 131305Z 27009KT M04/M05 A3015 RMK A01 T10351053  RH  087%=      5-min Rain = 0
KLES 131310Z 27009KT M03/M05 A3015 RMK A01 T10331052  RH  087%=      5-min Rain = 0
KLES 131315Z 27009KT M03/M05 A3015 RMK A01 T10331053  RH  086%=      5-min Rain = 0
KLES 131320Z 27008KT M04/M06 A3015 RMK A01 T10351055  RH  086%=      5-min Rain = 0
KLES 131325Z 27008KT M04/M06 A3014 RMK A01 T10371057  RH  086%=      5-min Rain = 0
KLES 131330Z 26008KT M04/M06 A3014 RMK A01 T10361056  RH  086%=      5-min Rain = 0
KLES 131335Z 26009KT M04/M06 A3014 RMK A01 T10371058  RH  085%=      5-min Rain = 0
KLES 131340Z 26008KT M04/M06 A3014 RMK A01 T10361058  RH  085%=      5-min Rain = 0
KLES 131345Z 27007KT M04/M06 A3013 RMK A01 T10401062  RH  085%=      5-min Rain = 0
KLES 131350Z 27007KT M04/M06 A3013 RMK A01 T10411062  RH  086%=      5-min Rain = 0
KLES 131355Z 28007KT M04/M06 A3014 RMK A01 T10381058  RH  086%=      5-min Rain = 0
KLES 131400Z 27006KT M04/M06 A3013 RMK A01 T10361059  RH  085%=      5-min Rain = 0
KLES 131405Z 27006KT M04/M06 A3013 RMK A01 T10371060  RH  084%=      5-min Rain = 0
KLES 131410Z 26007KT M04/M06 A3013 RMK A01 T10371060  RH  084%=      5-min Rain = 0
KLES 131415Z 26008KT M04/M06 A3013 RMK A01 T10361059  RH  084%=      5-min Rain = 0
KLES 131420Z 26008KT M04/M06 A3013 RMK A01 T10371062  RH  083%=      5-min Rain = 0
KLES 131425Z 26007KT M04/M06 A3013 RMK A01 T10381062  RH  084%=      5-min Rain = 0
KLES 131430Z 26007KT M04/M06 A3013 RMK A01 T10371061  RH  084%=      5-min Rain = 0
KLES 131435Z 26007KT M04/M06 A3013 RMK A01 T10361060  RH  084%=      5-min Rain = 0
KLES 131440Z 26005KT M04/M06 A3013 RMK A01 T10361060  RH  083%=      5-min Rain = 0
KLES 131445Z 26006KT M04/M06 A3013 RMK A01 T10361060  RH  084%=      5-min Rain = 0
KLES 131450Z 26006KT M03/M06 A3013 RMK A01 T10331057  RH  083%=      5-min Rain = 0
KLES 131455Z 26006KT M03/M06 A3013 RMK A01 T10311056  RH  083%=      5-min Rain = 0
KLES 131500Z 26007KT M03/M05 A3013 RMK A01 T10271052  RH  083%=      5-min Rain = 0
KLES 131505Z 26008KT M02/M05 A3013 RMK A01 T10231050  RH  082%=      5-min Rain = 0
KLES 131510Z 26008KT M02/M05 A3014 RMK A01 T10201048  RH  081%=      5-min Rain = 0
KLES 131515Z 26007KT M02/M05 A3014 RMK A01 T10201048  RH  081%=      5-min Rain = 0
KLES 131520Z 27008KT M02/M05 A3013 RMK A01 T10181045  RH  082%=      5-min Rain = 0
KLES 131525Z 27009KT M01/M04 A3013 RMK A01 T10141042  RH  082%=      5-min Rain = 0
KLES 131530Z 27012KT M01/M04 A3013 RMK A01 T10111042  RH  080%=      5-min Rain = 0
KLES 131535Z 27012KT M01/M04 A3014 RMK A01 T10081040  RH  079%=      5-min Rain = 0
KLES 131540Z 27012KT M01/M04 A3014 RMK A01 T10051040  RH  078%=      5-min Rain = 0
KLES 131545Z 27011KT M00/M04 A3013 RMK A01 T10041039  RH  078%=      5-min Rain = 0
KLES 131550Z 27012KT M00/M04 A3013 RMK A01 T10031038  RH  078%=      5-min Rain = 0
KLES 131555Z 27011KT M00/M04 A3013 RMK A01 T10021037  RH  078%=      5-min Rain = 0
KLES 131600Z 27010KT 00/03 A3013 RMK A01 T00-00-34  RH  078%=      5-min Rain = 0
KLES 131605Z 26009KT 00/M03 A3013 RMK A01 T00011031  RH  079%=      5-min Rain = 0
KLES 131610Z 26010G15KT 00/M03 A3013 RMK A01 T00021032  RH  078%=      5-min Rain = 0
KLES 131615Z 25010KT 01/M03 A3013 RMK A01 T00061031  RH  077%=      5-min Rain = 0
KLES 131620Z 25011KT 01/M03 A3013 RMK A01 T00081030  RH  076%=      5-min Rain = 0
KLES 131625Z 26010KT 01/M03 A3013 RMK A01 T00091031  RH  075%=      5-min Rain = 0.01
KLES 131630Z 25011KT 01/M03 A3013 RMK A01 T00101028  RH  076%=      5-min Rain = 0
KLES 131635Z 25012KT 01/M03 A3013 RMK A01 T00101031  RH  075%=      5-min Rain = 0
KLES 131640Z 25012KT 01/M03 A3013 RMK A01 T00121029  RH  075%=      5-min Rain = 0
KLES 131645Z 26010KT 01/M03 A3013 RMK A01 T00131027  RH  075%=      5-min Rain = 0
KLES 131650Z 26010KT 02/M02 A3013 RMK A01 T00151024  RH  076%=      5-min Rain = 0
KLES 131655Z 26011KT 02/M02 A3012 RMK A01 T00161022  RH  076%=      5-min Rain = 0
KLES 131700Z 26011KT 02/M02 A3012 RMK A01 T00201021  RH  075%=      5-min Rain = 0
KLES 131705Z 26011KT 02/M02 A3013 RMK A01 T00221021  RH  074%=      5-min Rain = 0
KLES 131710Z 26012KT 02/M02 A3012 RMK A01 T00241021  RH  073%=      5-min Rain = 0
KLES 131715Z 26011KT 03/M02 A3012 RMK A01 T00251020  RH  073%=      5-min Rain = 0
KLES 131720Z 26011KT 02/M02 A3012 RMK A01 T00241017  RH  075%=      5-min Rain = 0
KLES 131725Z 26013KT 03/M02 A3011 RMK A01 T00251019  RH  073%=      5-min Rain = 0
KLES 131730Z 26011KT 03/M02 A3011 RMK A01 T00281016  RH  073%=      5-min Rain = 0
KLES 131735Z 26010KT 03/M01 A3011 RMK A01 T00311012  RH  074%=      5-min Rain = 0
KLES 131740Z 26010KT 03/M01 A3011 RMK A01 T00341013  RH  072%=      5-min Rain = 0
KLES 131745Z 26011KT 04/M01 A3011 RMK A01 T00361013  RH  071%=      5-min Rain = 0
KLES 131750Z 26011KT 04/M01 A301 RMK A01 T00381013  RH  070%=      5-min Rain = 0
KLES 131755Z 26012KT 04/M01 A301 RMK A01 T00401011  RH  070%=      5-min Rain = 0
KLES 131800Z 26013KT 04/M01 A301 RMK A01 T00431014  RH  067%=      5-min Rain = 0
KLES 131805Z 26014KT 05/M02 A3009 RMK A01 T00451016  RH  065%=      5-min Rain = 0
KLES 131810Z 26014KT 05/M02 A3008 RMK A01 T00461017  RH  064%=      5-min Rain = 0
KLES 131815Z 25013KT 04/M02 A3008 RMK A01 T00441016  RH  065%=      5-min Rain = 0
KLES 131820Z 26012KT 05/M01 A3008 RMK A01 T00481012  RH  066%=      5-min Rain = 0
KLES 131825Z 26011KT 05/M01 A3008 RMK A01 T00491008  RH  067%=      5-min Rain = 0
KLES 131830Z 26012KT 05/M01 A3007 RMK A01 T00491009  RH  066%=      5-min Rain = 0
KLES 131835Z 25011KT 05/M01 A3007 RMK A01 T00501008  RH  067%=      5-min Rain = 0
KLES 131840Z 25011KT 05/M01 A3006 RMK A01 T00541006  RH  066%=      5-min Rain = 0
KLES 131845Z 24009G14KT 06/M00 A3006 RMK A01 T00571003  RH  066%=      5-min Rain = 0
KLES 131850Z 25009KT 06/M00 A3005 RMK A01 T00571002  RH  066%=      5-min Rain = 0
KLES 131855Z 25011KT 06/M01 A3005 RMK A01 T00571005  RH  065%=      5-min Rain = 0
KLES 131900Z 25010KT 06/M00 A3004 RMK A01 T00591002  RH  066%=      5-min Rain = 0
KLES 131905Z 25012KT 06/M00 A3004 RMK A01 T00621004  RH  063%=      5-min Rain = 0
KLES 131910Z 24012KT 07/M00 A3003 RMK A01 T00661002  RH  062%=      5-min Rain = 0
KLES 131915Z 23014KT 07/M00 A3003 RMK A01 T00671004  RH  061%=      5-min Rain = 0
KLES 131920Z 23013KT 07/M00 A3002 RMK A01 T00681002  RH  062%=      5-min Rain = 0
KLES 131925Z 24013KT 07/00 A3002 RMK A01 T00690001  RH  062%=      5-min Rain = 0
KLES 131930Z 24012KT 07/00 A3002 RMK A01 T00710002  RH  062%=      5-min Rain = 0
KLES 131935Z 25013G18KT 07/00 A3001 RMK A01 T00740002  RH  061%=      5-min Rain = 0
KLES 131940Z 24010KT 08/01 A3001 RMK A01 T00770006  RH  062%=      5-min Rain = 0
KLES 131945Z 24011KT 08/01 A3001 RMK A01 T00790006  RH  061%=      5-min Rain = 0
KLES 131950Z 25013G18KT 08/00 A30 RMK A01 T00800003  RH  059%=      5-min Rain = 0
KLES 131955Z 25013KT 08/00 A30 RMK A01 T00840002  RH  057%=      5-min Rain = 0
KLES 132000Z 25013G18KT 08/M00 A30 RMK A01 T00841002  RH  055%=      5-min Rain = 0
KLES 132005Z 25015KT 08/M00 A30 RMK A01 T00841003  RH  055%=      5-min Rain = 0
KLES 132010Z 25013KT 08/M00 A30 RMK A01 T00841001  RH  056%=      5-min Rain = 0
KLES 132015Z 24010KT 09/01 A30 RMK A01 T00860009  RH  059%=      5-min Rain = 0
KLES 132020Z 24010KT 09/01 A2999 RMK A01 T00890011  RH  059%=      5-min Rain = 0
KLES 132025Z 24011KT 09/01 A2999 RMK A01 T00930010  RH  057%=      5-min Rain = 0
KLES 132030Z 24010KT 09/01 A2999 RMK A01 T00940013  RH  058%=      5-min Rain = 0
KLES 132035Z 25012KT 09/01 A2999 RMK A01 T00920005  RH  055%=      5-min Rain = 0
KLES 132040Z 25013KT 09/01 A2999 RMK A01 T00900007  RH  057%=      5-min Rain = 0
KLES 132045Z 25011KT 09/01 A2999 RMK A01 T00920012  RH  058%=      5-min Rain = 0
KLES 132050Z 25012KT 10/01 A2998 RMK A01 T00960013  RH  057%=      5-min Rain = 0
KLES 132055Z 24011KT 10/02 A2998 RMK A01 T01020015  RH  056%=      5-min Rain = 0
KLES 132100Z 24012KT 10/01 A2998 RMK A01 T01030014  RH  055%=      5-min Rain = 0
KLES 132105Z 24012KT 10/02 A2998 RMK A01 T01040019  RH  056%=      5-min Rain = 0
KLES 132110Z 24013KT 11/02 A2997 RMK A01 T01060019  RH  056%=      5-min Rain = 0
KLES 132115Z 24013G18KT 11/02 A2997 RMK A01 T01070019  RH  055%=      5-min Rain = 0
KLES 132120Z 24013G18KT 11/02 A2997 RMK A01 T01090020  RH  055%=      5-min Rain = 0
KLES 132125Z 24013KT 11/02 A2996 RMK A01 T01090023  RH  056%=      5-min Rain = 0
KLES 132130Z 24014KT 11/03 A2996 RMK A01 T01100026  RH  057%=      5-min Rain = 0
KLES 132135Z 24012G18KT 11/03 A2996 RMK A01 T01100027  RH  058%=      5-min Rain = 0
KLES 132140Z 24012KT 11/03 A2996 RMK A01 T01110028  RH  058%=      5-min Rain = 0
KLES 132145Z 24011KT 11/03 A2996 RMK A01 T01130029  RH  057%=      5-min Rain = 0
KLES 132150Z 24012KT 12/03 A2996 RMK A01 T01150031  RH  057%=      5-min Rain = 0
KLES 132155Z 24012KT 12/03 A2996 RMK A01 T01160031  RH  057%=      5-min Rain = 0
KLES 132200Z 24013KT 12/03 A2996 RMK A01 T01170031  RH  056%=      5-min Rain = 0
KLES 132205Z 24012KT 12/03 A2996 RMK A01 T01170031  RH  056%=      5-min Rain = 0
KLES 132210Z 24011KT 12/03 A2996 RMK A01 T01180032  RH  057%=      5-min Rain = 0
KLES 132215Z 24010KT 12/03 A2996 RMK A01 T01190033  RH  057%=      5-min Rain = 0
KLES 132220Z 24011KT 12/03 A2996 RMK A01 T01190033  RH  056%=      5-min Rain = 0
KLES 132225Z 24010KT 12/03 A2996 RMK A01 T01200032  RH  056%=      5-min Rain = 0
KLES 132230Z 24009KT 12/04 A2996 RMK A01 T01210035  RH  057%=      5-min Rain = 0
KLES 132235Z 24010KT 12/03 A2996 RMK A01 T01210034  RH  056%=      5-min Rain = 0
KLES 132240Z 24011KT 12/03 A2996 RMK A01 T01210030  RH  055%=      5-min Rain = 0
KLES 132245Z 24012KT 12/03 A2996 RMK A01 T01210026  RH  053%=      5-min Rain = 0
KLES 132250Z 24012KT 12/03 A2996 RMK A01 T01220025  RH  052%=      5-min Rain = 0
KLES 132255Z 24011KT 12/03 A2995 RMK A01 T01220026  RH  053%=      5-min Rain = 0
KLES 132300Z 24010KT 12/03 A2995 RMK A01 T01210026  RH  053%=      5-min Rain = 0
KLES 132305Z 24010KT 12/03 A2995 RMK A01 T01200025  RH  053%=      5-min Rain = 0
KLES 132310Z 24011KT 12/02 A2995 RMK A01 T01190023  RH  053%=      5-min Rain = 0
KLES 132315Z 24011KT 12/02 A2994 RMK A01 T01190024  RH  053%=      5-min Rain = 0
KLES 132320Z 24010KT 12/02 A2994 RMK A01 T01180024  RH  053%=      5-min Rain = 0
KLES 132325Z 24010KT 12/02 A2994 RMK A01 T01180023  RH  053%=      5-min Rain = 0
KLES 132330Z 24009KT 12/02 A2994 RMK A01 T01180022  RH  053%=      5-min Rain = 0
KLES 132335Z 24009KT 12/02 A2994 RMK A01 T01150022  RH  054%=      5-min Rain = 0
KLES 132340Z 24009KT 11/02 A2994 RMK A01 T01120022  RH  055%=      5-min Rain = 0
KLES 132345Z 23009KT 11/02 A2993 RMK A01 T01090022  RH  056%=      5-min Rain = 0
KLES 132350Z 24009KT 11/02 A2993 RMK A01 T01050022  RH  057%=      5-min Rain = 0
KLES 132355Z 24008KT 10/02 A2993 RMK A01 T01020021  RH  058%=      5-min Rain = 0
KLES 140000Z 24009KT 10/02 A2993 RMK A01 T00990021  RH  059%=      5-min Rain = 0
KLES 140005Z 24009KT 10/02 A2993 RMK A01 T00960019  RH  060%=      5-min Rain = 0
KLES 140010Z 24008KT 09/02 A2993 RMK A01 T00930018  RH  060%=      5-min Rain = 0
KLES 140015Z 24007KT 09/02 A2993 RMK A01 T00900017  RH  061%=      5-min Rain = 0
KLES 140020Z 24008KT 09/02 A2993 RMK A01 T00870018  RH  063%=      5-min Rain = 0
KLES 140025Z 24008KT 09/02 A2993 RMK A01 T00860018  RH  063%=      5-min Rain = 0
KLES 140030Z 24008KT 08/02 A2993 RMK A01 T00830018  RH  065%=      5-min Rain = 0
KLES 140035Z 24008KT 08/02 A2993 RMK A01 T00790019  RH  067%=      5-min Rain = 0
KLES 140040Z 24007KT 08/02 A2993 RMK A01 T00770018  RH  067%=      5-min Rain = 0
KLES 140045Z 24008KT 08/02 A2993 RMK A01 T00770017  RH  067%=      5-min Rain = 0
KLES 140050Z 25009KT 08/02 A2993 RMK A01 T00770016  RH  066%=      5-min Rain = 0
KLES 140055Z 25009KT 08/01 A2993 RMK A01 T00770014  RH  065%=      5-min Rain = 0
KLES 140100Z 25008KT 08/01 A2993 RMK A01 T00760014  RH  066%=      5-min Rain = 0
KLES 140105Z 25008KT 07/02 A2994 RMK A01 T00710015  RH  068%=      5-min Rain = 0
KLES 140110Z 25009KT 07/01 A2994 RMK A01 T00690012  RH  068%=      5-min Rain = 0
KLES 140115Z 25009KT 07/01 A2993 RMK A01 T00710009  RH  065%=      5-min Rain = 0
KLES 140120Z 25009KT 07/01 A2993 RMK A01 T00690008  RH  066%=      5-min Rain = 0
KLES 140125Z 25009KT 07/01 A2993 RMK A01 T00680008  RH  067%=      5-min Rain = 0
KLES 140130Z 25009KT 07/01 A2993 RMK A01 T00660007  RH  067%=      5-min Rain = 0
KLES 140135Z 25010KT 07/01 A2993 RMK A01 T00670006  RH  066%=      5-min Rain = 0
KLES 140140Z 25010KT 07/00 A2993 RMK A01 T00710002  RH  062%=      5-min Rain = 0
KLES 140145Z 25010KT 07/00 A2993 RMK A01 T00720001  RH  062%=      5-min Rain = 0
KLES 140150Z 25009KT 07/00 A2993 RMK A01 T00680000  RH  063%=      5-min Rain = 0
KLES 140155Z 26009KT 06/00 A2993 RMK A01 T00630000  RH  065%=      5-min Rain = 0
KLES 140200Z 25009KT 06/M00 A2992 RMK A01 T00601001  RH  066%=      5-min Rain = 0
KLES 140205Z 26009KT 06/M00 A2992 RMK A01 T00581001  RH  067%=      5-min Rain = 0
KLES 140210Z 26010KT 06/M00 A2992 RMK A01 T00581001  RH  067%=      5-min Rain = 0
KLES 140215Z 25010KT 06/M00 A2992 RMK A01 T00581001  RH  066%=      5-min Rain = 0
KLES 140220Z 26010KT 06/M00 A2992 RMK A01 T00571002  RH  067%=      5-min Rain = 0
KLES 140225Z 26009KT 05/M00 A2992 RMK A01 T00531001  RH  069%=      5-min Rain = 0
KLES 140230Z 25010KT 05/M00 A2992 RMK A01 T00511001  RH  070%=      5-min Rain = 0
KLES 140235Z 25010KT 05/M00 A2992 RMK A01 T00521001  RH  069%=      5-min Rain = 0
KLES 140240Z 25009KT 05/M00 A2991 RMK A01 T00511001  RH  070%=      5-min Rain = 0
KLES 140245Z 24009KT 05/M00 A2991 RMK A01 T00491001  RH  071%=      5-min Rain = 0
KLES 140250Z 24009KT 05/M00 A2991 RMK A01 T00471001  RH  072%=      5-min Rain = 0
KLES 140255Z 25009KT 05/M00 A2991 RMK A01 T00461001  RH  072%=      5-min Rain = 0
KLES 140300Z 25010KT 05/M00 A2991 RMK A01 T00491002  RH  070%=      5-min Rain = 0
KLES 140305Z 25010KT 05/M00 A2991 RMK A01 T00501004  RH  069%=      5-min Rain = 0
KLES 140310Z 25010KT 05/M01 A2991 RMK A01 T00531006  RH  066%=      5-min Rain = 0
KLES 140315Z 25011KT 05/M01 A299 RMK A01 T00541007  RH  065%=      5-min Rain = 0
KLES 140320Z 25011KT 06/M01 A299 RMK A01 T00551008  RH  064%=      5-min Rain = 0
KLES 140325Z 25010KT 06/M01 A299 RMK A01 T00551007  RH  065%=      5-min Rain = 0
KLES 140330Z 25010KT 05/M01 A299 RMK A01 T00541007  RH  065%=      5-min Rain = 0
KLES 140335Z 25010KT 05/M01 A299 RMK A01 T00521007  RH  066%=      5-min Rain = 0
KLES 140340Z 25011KT 05/M01 A299 RMK A01 T00511007  RH  067%=      5-min Rain = 0
KLES 140345Z 25011KT 05/M01 A299 RMK A01 T00511008  RH  066%=      5-min Rain = 0
KLES 140350Z 25011KT 05/M01 A299 RMK A01 T00511009  RH  066%=      5-min Rain = 0
KLES 140355Z 25011KT 05/M01 A2989 RMK A01 T00511010  RH  066%=      5-min Rain = 0
KLES 140400Z 26010KT 05/M01 A2989 RMK A01 T00491010  RH  066%=      5-min Rain = 0
KLES 140405Z 26011KT 05/M01 A2989 RMK A01 T00471009  RH  068%=      5-min Rain = 0
KLES 140410Z 26011KT 05/M01 A2989 RMK A01 T00461009  RH  068%=      5-min Rain = 0
KLES 140415Z 25012KT 05/M01 A2989 RMK A01 T00461010  RH  068%=      5-min Rain = 0
KLES 140420Z 25013KT 05/M01 A2989 RMK A01 T00481010  RH  067%=      5-min Rain = 0
KLES 140425Z 25012KT 05/M01 A2989 RMK A01 T00471010  RH  067%=      5-min Rain = 0
KLES 140430Z 25012KT 05/M01 A2989 RMK A01 T00461010  RH  067%=      5-min Rain = 0
KLES 140435Z 25011KT 04/M01 A2989 RMK A01 T00441010  RH  069%=      5-min Rain = 0
KLES 140440Z 25010KT 04/M01 A2989 RMK A01 T00421010  RH  070%=      5-min Rain = 0
KLES 140445Z 25011KT 04/M01 A2989 RMK A01 T00411010  RH  070%=      5-min Rain = 0
KLES 140450Z 26010KT 04/M01 A2988 RMK A01 T00431011  RH  069%=      5-min Rain = 0
KLES 140455Z 25011KT 04/M01 A2988 RMK A01 T00441011  RH  068%=      5-min Rain = 0
KLES 140500Z 25012KT 04/M01 A2988 RMK A01 T00431011  RH  068%=      5-min Rain = 0
KLES 140505Z 25013KT 05/M01 A2988 RMK A01 T00461012  RH  067%=      5-min Rain = 0
KLES 140510Z 26012KT 05/M01 A2988 RMK A01 T00481014  RH  065%=      5-min Rain = 0
KLES 140515Z 25012KT 05/M02 A2988 RMK A01 T00501015  RH  064%=      5-min Rain = 0
KLES 140520Z 25013KT 05/M02 A2988 RMK A01 T00531015  RH  062%=      5-min Rain = 0
KLES 140525Z 25014KT 05/M02 A2988 RMK A01 T00531015  RH  062%=      5-min Rain = 0
KLES 140530Z 25013KT 05/M02 A2988 RMK A01 T00541016  RH  061%=      5-min Rain = 0
KLES 140535Z 25012KT 05/M02 A2988 RMK A01 T00521015  RH  062%=      5-min Rain = 0
KLES 140540Z 25012KT 05/M02 A2988 RMK A01 T00491015  RH  064%=      5-min Rain = 0
KLES 140545Z 26011KT 05/M02 A2988 RMK A01 T00461015  RH  066%=      5-min Rain = 0
KLES 140550Z 26011KT 04/M01 A2988 RMK A01 T00431014  RH  067%=      5-min Rain = 0
KLES 140555Z 26010KT 04/M01 A2988 RMK A01 T00411014  RH  068%=      5-min Rain = 0

Page generated in 0.0087 seconds.